Time;durP1;ratioP1;P1;durP2;ratioP2;P2;SDS_P1;SDS_P2;PMS_P1;PMS_P2;Temp;Humidity;BMP_temperature;BMP_pressure;BME280_temperature;BME280_humidity;BME280_pressure;Samples;Min_cycle;Max_cycle;Signal;HPM_P1;HPM_P2
2024/01/20 00:00:18;;;;;;;12.43;9.02;;;;;;;-1.14;88.47;99917.91;6202041;23;20051;-76
2024/01/20 00:03:03;;;;;;;13.80;9.00;;;;;;;-1.15;88.71;99908.47;6203201;23;20448;-75
2024/01/20 00:05:49;;;;;;;10.50;7.40;;;;;;;-1.13;88.02;99909.13;6204265;23;20027;-76
2024/01/20 00:08:35;;;;;;;11.88;7.18;;;;;;;-1.08;88.83;99919.97;6202223;23;20031;-76
2024/01/20 00:11:20;;;;;;;11.10;7.22;;;;;;;-1.23;87.97;99915.16;6201826;23;20043;-74
2024/01/20 00:14:06;;;;;;;13.55;8.10;;;;;;;-1.06;88.75;99934.53;6203212;23;20315;-73
2024/01/20 00:16:51;;;;;;;12.20;8.23;;;;;;;-1.09;87.82;99937.41;6202880;23;20052;-73
2024/01/20 00:19:37;;;;;;;12.32;8.32;;;;;;;-1.06;88.14;99939.75;6203466;23;20044;-75
2024/01/20 00:22:23;;;;;;;17.42;10.50;;;;;;;-1.13;87.24;99909.94;6203170;23;20027;-74
2024/01/20 00:25:08;;;;;;;9.93;6.95;;;;;;;-1.05;87.06;99923.13;6203090;23;20028;-75
2024/01/20 00:27:54;;;;;;;9.38;6.65;;;;;;;-0.96;87.00;99939.75;6204563;23;20047;-73
2024/01/20 00:30:40;;;;;;;10.85;5.53;;;;;;;-1.00;86.30;99938.38;6203966;23;20043;-75
2024/01/20 00:33:25;;;;;;;12.88;6.28;;;;;;;-0.96;85.16;99935.34;6203890;23;20054;-74
2024/01/20 00:36:11;;;;;;;11.80;6.53;;;;;;;-0.95;85.28;99938.78;6203131;23;20032;-75
2024/01/20 00:38:56;;;;;;;7.03;4.78;;;;;;;-0.95;84.61;99955.25;6204141;23;20027;-75
2024/01/20 00:41:41;;;;;;;10.02;6.45;;;;;;;-0.93;85.23;99957.75;6200787;23;20028;-73
2024/01/20 00:44:27;;;;;;;7.15;5.72;;;;;;;-0.93;84.62;99955.94;6203013;23;20027;-75
2024/01/20 00:47:14;;;;;;;10.23;6.15;;;;;;;-0.91;85.15;99953.19;6204218;23;20028;-76
2024/01/20 00:49:59;;;;;;;9.00;5.18;;;;;;;-1.03;85.27;99957.75;6203158;23;20028;-76
2024/01/20 00:52:45;;;;;;;10.25;6.60;;;;;;;-0.97;86.55;99974.66;6202518;23;20027;-75
2024/01/20 00:55:31;;;;;;;11.20;6.40;;;;;;;-1.04;85.90;99990.00;6204026;23;20044;-76
2024/01/20 00:58:16;;;;;;;11.25;6.32;;;;;;;-1.08;85.99;99987.81;6203535;23;20027;-75
2024/01/20 01:01:02;;;;;;;9.73;6.55;;;;;;;-1.05;86.63;100003.19;6181486;23;20311;-78
2024/01/20 01:03:47;;;;;;;7.25;5.50;;;;;;;-1.04;86.95;99997.00;6203947;23;20031;-77
2024/01/20 01:06:33;;;;;;;8.18;6.68;;;;;;;-1.00;86.73;99999.22;6204107;23;20342;-74
2024/01/20 01:09:18;;;;;;;9.40;6.45;;;;;;;-0.96;87.40;100007.59;6203695;23;20090;-76
2024/01/20 01:12:04;;;;;;;7.95;5.40;;;;;;;-1.04;87.90;100012.66;6203343;23;20484;-74
2024/01/20 01:14:49;;;;;;;10.77;7.63;;;;;;;-1.04;88.06;100018.69;6202621;23;20027;-74
2024/01/20 01:17:35;;;;;;;9.30;6.45;;;;;;;-1.10;89.06;100016.63;6203938;23;20047;-75
2024/01/20 01:20:21;;;;;;;9.15;6.20;;;;;;;-1.10;88.61;100016.63;6202907;23;20480;-76
2024/01/20 01:23:06;;;;;;;8.90;5.10;;;;;;;-1.18;89.87;100025.13;6203707;23;20345;-76
2024/01/20 01:25:53;;;;;;;9.98;6.68;;;;;;;-1.17;90.50;100020.75;6203368;23;20370;-75
2024/01/20 01:28:39;;;;;;;10.63;6.78;;;;;;;-1.25;90.43;100021.44;6203168;23;20028;-74
2024/01/20 01:31:24;;;;;;;11.60;8.13;;;;;;;-1.14;90.41;100025.69;6203727;23;20028;-78
2024/01/20 01:34:10;;;;;;;11.68;8.07;;;;;;;-1.14;91.33;100030.91;6202725;23;20350;-76
2024/01/20 01:36:55;;;;;;;11.27;7.97;;;;;;;-1.18;91.24;100035.56;6203683;23;20449;-75
2024/01/20 01:39:42;;;;;;;14.95;9.68;;;;;;;-1.25;91.47;100028.44;6202926;23;20441;-75
2024/01/20 01:42:28;;;;;;;14.40;8.27;;;;;;;-1.22;91.74;100022.94;6203104;23;20027;-75
2024/01/20 01:45:13;;;;;;;14.48;8.82;;;;;;;-1.25;91.85;100015.38;6202367;23;20047;-76
2024/01/20 01:47:59;;;;;;;30.98;15.35;;;;;;;-1.21;91.33;100029.81;6202585;23;20027;-77
2024/01/20 01:50:44;;;;;;;14.25;9.70;;;;;;;-1.15;91.54;100037.09;6201932;23;20020;-75
2024/01/20 01:53:33;;;;;;;11.73;8.50;;;;;;;-1.12;92.29;100036.81;6202902;23;20445;-74
2024/01/20 01:56:19;;;;;;;11.68;7.68;;;;;;;-1.28;91.78;100023.47;6202256;23;20024;-77
2024/01/20 01:59:05;;;;;;;9.43;7.18;;;;;;;-1.18;91.28;100045.19;6202970;23;20327;-75
2024/01/20 02:01:51;;;;;;;10.18;7.25;;;;;;;-1.22;91.83;100049.84;6202886;23;20044;-76
2024/01/20 02:04:37;;;;;;;11.68;7.35;;;;;;;-1.18;91.79;100048.63;6201522;23;20318;-76
2024/01/20 02:07:22;;;;;;;12.35;8.00;;;;;;;-1.26;91.82;100050.22;6201214;23;20028;-75
2024/01/20 02:10:08;;;;;;;12.45;7.60;;;;;;;-1.18;92.41;100061.66;6201655;23;20441;-75
2024/01/20 02:12:53;;;;;;;11.23;7.22;;;;;;;-1.20;92.80;100078.38;6202592;23;20028;-76
2024/01/20 02:15:39;;;;;;;11.68;7.78;;;;;;;-1.23;92.12;100071.66;6203229;23;20027;-77
2024/01/20 02:18:24;;;;;;;14.70;8.60;;;;;;;-1.19;92.18;100077.44;6203751;23;20028;-76
2024/01/20 02:21:09;;;;;;;15.40;8.38;;;;;;;-1.18;92.66;100072.09;6202675;23;20024;-74
2024/01/20 02:23:56;;;;;;;14.95;8.95;;;;;;;-1.15;92.77;100076.22;6203947;23;20031;-77
2024/01/20 02:26:41;;;;;;;13.45;7.28;;;;;;;-1.23;92.36;100071.66;6201825;23;20027;-74
2024/01/20 02:29:26;;;;;;;10.93;7.75;;;;;;;-1.15;92.03;100075.41;6203036;23;20318;-75
2024/01/20 02:32:12;;;;;;;11.07;7.38;;;;;;;-1.22;92.21;100081.16;6203341;23;20306;-76
2024/01/20 02:34:57;;;;;;;12.43;7.30;;;;;;;-1.21;92.52;100079.34;6202916;23;20043;-75
2024/01/20 02:37:43;;;;;;;13.05;7.53;;;;;;;-1.17;92.85;100086.78;6202952;23;20314;-76
2024/01/20 02:40:29;;;;;;;11.80;6.55;;;;;;;-1.21;92.21;100081.97;6202834;23;20028;-76
2024/01/20 02:43:15;;;;;;;10.10;6.43;;;;;;;-1.21;92.30;100098.44;6201540;23;20016;-75
2024/01/20 02:46:00;;;;;;;9.63;6.18;;;;;;;-1.28;92.25;100096.50;6202662;23;20445;-76
2024/01/20 02:48:46;;;;;;;7.07;5.28;;;;;;;-1.31;91.99;100099.38;6204670;23;20036;-75
2024/01/20 02:51:31;;;;;;;10.13;5.45;;;;;;;-1.28;92.08;100107.75;6204594;23;20042;-75
2024/01/20 02:54:16;;;;;;;8.35;5.22;;;;;;;-1.31;92.45;100102.81;6202897;23;20310;-74
2024/01/20 02:57:02;;;;;;;8.30;5.63;;;;;;;-1.32;92.16;100110.75;6204243;23;20027;-75
2024/01/20 02:59:47;;;;;;;11.07;7.15;;;;;;;-1.33;92.41;100099.50;6204469;23;20031;-76
2024/01/20 03:02:32;;;;;;;9.48;6.25;;;;;;;-1.33;91.65;100098.66;6204406;23;20461;-75
2024/01/20 03:05:18;;;;;;;9.77;6.18;;;;;;;-1.41;91.99;100102.78;6202649;23;20028;-77
2024/01/20 03:08:03;;;;;;;9.40;6.13;;;;;;;-1.37;91.74;100105.13;6205013;23;20303;-76
2024/01/20 03:10:48;;;;;;;8.15;6.13;;;;;;;-1.38;91.69;100106.06;6203972;23;20455;-74
2024/01/20 03:13:34;;;;;;;9.98;6.60;;;;;;;-1.43;92.01;100106.47;6204928;23;20307;-76
2024/01/20 03:16:19;;;;;;;10.88;7.85;;;;;;;-1.44;91.67;100112.63;6204618;23;20028;-76
2024/01/20 03:19:06;;;;;;;7.40;4.90;;;;;;;-1.48;91.12;100114.66;6203062;23;20043;-76
2024/01/20 03:21:50;;;;;;;10.07;6.97;;;;;;;-1.47;90.77;100108.50;6204514;23;20318;-76
2024/01/20 03:24:36;;;;;;;9.85;6.78;;;;;;;-1.40;90.46;100119.22;6204169;23;20334;-77
2024/01/20 03:27:22;;;;;;;7.43;5.55;;;;;;;-1.47;90.07;100118.13;6204964;23;20028;-76
2024/01/20 03:30:08;;;;;;;10.32;6.80;;;;;;;-1.51;89.44;100106.28;6204994;23;20433;-74
2024/01/20 03:32:53;;;;;;;8.55;6.28;;;;;;;-1.37;90.10;100120.75;6203800;23;20027;-78
2024/01/20 03:35:38;;;;;;;10.70;6.63;;;;;;;-1.34;89.76;100133.53;6204052;23;20043;-74
2024/01/20 03:38:24;;;;;;;11.38;6.65;;;;;;;-1.57;89.47;100107.63;6203759;23;20445;-75
2024/01/20 03:41:10;;;;;;;8.68;5.82;;;;;;;-1.51;89.55;100119.31;6203096;23;20036;-76
2024/01/20 03:43:55;;;;;;;11.20;7.03;;;;;;;-1.41;89.72;100144.50;6204550;23;20437;-75
2024/01/20 03:46:41;;;;;;;12.70;7.50;;;;;;;-1.41;89.32;100141.03;6204273;23;20044;-77
2024/01/20 03:49:27;;;;;;;14.38;6.50;;;;;;;-1.44;88.85;100142.13;6205158;23;20310;-75
2024/01/20 03:52:12;;;;;;;11.07;6.05;;;;;;;-1.45;88.65;100148.28;6203942;23;20294;-77
2024/01/20 03:54:57;;;;;;;9.50;6.38;;;;;;;-1.60;88.84;100128.72;6204353;23;20047;-74
2024/01/20 03:57:43;;;;;;;9.95;5.78;;;;;;;-1.54;88.00;100143.84;6204437;23;20028;-74
2024/01/20 04:00:29;;;;;;;9.85;5.68;;;;;;;-1.54;88.90;100143.03;6204229;23;20323;-75
2024/01/20 04:03:14;;;;;;;11.63;6.75;;;;;;;-1.57;87.96;100138.91;6204424;23;20043;-78
2024/01/20 04:06:00;;;;;;;12.68;6.72;;;;;;;-1.56;88.63;100137.97;6203473;23;20035;-76
2024/01/20 04:08:45;;;;;;;11.23;6.45;;;;;;;-1.65;88.39;100130.91;6203827;23;20043;-75
2024/01/20 04:11:31;;;;;;;14.70;7.00;;;;;;;-1.62;88.67;100143.69;6203923;23;20044;-74
2024/01/20 04:14:17;;;;;;;8.23;5.28;;;;;;;-1.69;88.24;100129.53;6203874;23;20436;-75
2024/01/20 04:17:03;;;;;;;12.57;7.43;;;;;;;-1.71;87.72;100142.66;6204610;23;20302;-76
2024/01/20 04:19:49;;;;;;;12.73;7.53;;;;;;;-1.70;88.29;100143.50;6204071;23;20043;-77
2024/01/20 04:22:35;;;;;;;11.48;7.93;;;;;;;-1.59;87.75;100166.91;6204461;23;20421;-75
2024/01/20 04:25:20;;;;;;;11.32;6.38;;;;;;;-1.59;86.88;100148.66;6203767;23;20028;-76
2024/01/20 04:28:06;;;;;;;9.95;5.95;;;;;;;-1.60;87.14;100154.78;6203424;23;20043;-75
2024/01/20 04:30:53;;;;;;;12.60;7.35;;;;;;;-1.56;86.82;100165.81;6204326;23;20421;-75
2024/01/20 04:33:39;;;;;;;11.55;7.07;;;;;;;-1.61;86.73;100174.00;6204113;23;20322;-76
2024/01/20 04:36:24;;;;;;;13.10;7.70;;;;;;;-1.55;86.22;100181.31;6204300;23;20436;-77
2024/01/20 04:39:10;;;;;;;14.57;6.90;;;;;;;-1.52;86.31;100178.44;6204154;23;20028;-76
2024/01/20 04:41:55;;;;;;;15.27;7.70;;;;;;;-1.45;86.10;100191.78;6198710;23;20318;-75
2024/01/20 04:44:40;;;;;;;16.88;8.65;;;;;;;-1.46;86.31;100179.72;6203342;23;20032;-74
2024/01/20 04:47:26;;;;;;;16.20;7.80;;;;;;;-1.44;86.07;100190.84;6203676;23;20433;-76
2024/01/20 04:50:12;;;;;;;16.75;8.55;;;;;;;-1.42;86.27;100183.72;6203092;23;20028;-77
2024/01/20 04:52:57;;;;;;;15.20;7.78;;;;;;;-1.42;85.26;100192.34;6201775;23;20028;-76
2024/01/20 04:55:42;;;;;;;14.93;7.72;;;;;;;-1.35;83.49;100199.66;6203422;23;20047;-76
2024/01/20 04:58:28;;;;;;;14.50;7.75;;;;;;;-1.41;82.71;100198.41;6203084;23;20031;-76
2024/01/20 05:01:13;;;;;;;13.82;7.45;;;;;;;-1.28;82.38;100216.47;6202654;23;20310;-75
2024/01/20 05:03:58;;;;;;;14.32;7.65;;;;;;;-1.26;81.97;100210.16;6203017;23;20050;-77
2024/01/20 05:06:48;;;;;;;13.63;8.13;;;;;;;-1.24;82.92;100207.44;6203594;23;20314;-77
2024/01/20 05:09:33;;;;;;;14.93;8.52;;;;;;;-1.25;82.00;100209.22;6206613;23;20024;-77
2024/01/20 05:12:19;;;;;;;18.00;9.60;;;;;;;-1.18;82.04;100215.56;6204621;23;20028;-76
2024/01/20 05:15:10;;;;;;;21.63;10.15;;;;;;;-1.20;82.66;100225.28;6204598;23;20310;-75
2024/01/20 05:17:56;;;;;;;18.23;10.10;;;;;;;-1.18;82.52;100218.16;6203764;23;20020;-77
2024/01/20 05:20:42;;;;;;;23.80;13.32;;;;;;;-1.18;82.26;100228.59;6203001;23;20016;-75
2024/01/20 05:23:28;;;;;;;59.22;23.60;;;;;;;-1.15;81.49;100235.34;6203255;23;20020;-77
2024/01/20 05:26:13;;;;;;;46.13;22.08;;;;;;;-1.18;82.46;100253.88;6203229;23;20333;-76
2024/01/20 05:29:00;;;;;;;33.28;14.35;;;;;;;-1.18;83.18;100248.66;6203751;23;20311;-76
2024/01/20 05:31:45;;;;;;;21.35;12.05;;;;;;;-1.20;82.61;100251.38;6202706;23;20025;-78
2024/01/20 05:34:31;;;;;;;49.42;20.27;;;;;;;-1.17;81.64;100255.50;6203531;23;20020;-77
2024/01/20 05:37:16;;;;;;;25.35;12.15;;;;;;;-1.18;81.29;100259.06;6202711;23;20020;-76
2024/01/20 05:40:04;;;;;;;49.33;23.80;;;;;;;-1.16;81.75;100262.38;6202814;23;20406;-77
2024/01/20 05:42:49;;;;;;;52.80;23.52;;;;;;;-1.25;82.50;100258.78;6195882;23;20028;-76
2024/01/20 05:45:35;;;;;;;47.95;22.90;;;;;;;-1.17;81.93;100276.38;6202981;23;20021;-77
2024/01/20 05:48:21;;;;;;;41.78;22.70;;;;;;;-1.20;82.59;100276.63;6203311;23;20418;-77
2024/01/20 05:51:07;;;;;;;37.35;20.13;;;;;;;-1.21;82.79;100283.63;6203037;23;20410;-74
2024/01/20 05:53:53;;;;;;;33.70;18.33;;;;;;;-1.31;82.45;100274.94;6201573;23;20021;-75
2024/01/20 05:56:38;;;;;;;36.28;19.33;;;;;;;-1.22;82.21;100283.78;6202080;23;20441;-76
2024/01/20 05:59:24;;;;;;;35.78;18.40;;;;;;;-1.25;82.02;100292.69;6201470;23;20021;-78
2024/01/20 06:02:09;;;;;;;39.47;21.17;;;;;;;-1.23;82.59;100297.75;6203466;23;20021;-76
2024/01/20 06:04:55;;;;;;;36.78;18.23;;;;;;;-1.20;82.27;100294.88;6203498;23;20395;-77
2024/01/20 06:07:40;;;;;;;35.17;18.52;;;;;;;-1.20;81.45;100305.31;6202755;23;20318;-76
2024/01/20 06:10:26;;;;;;;48.60;15.68;;;;;;;-1.18;81.76;100301.63;6203575;23;20020;-76
2024/01/20 06:13:12;;;;;;;30.98;15.80;;;;;;;-1.14;81.14;100317.84;6201517;23;20020;-75
2024/01/20 06:15:58;;;;;;;44.20;22.77;;;;;;;-1.12;81.00;100315.13;6202737;23;20414;-75
2024/01/20 06:18:43;;;;;;;38.67;20.98;;;;;;;-1.10;81.35;100313.22;6203033;23;20020;-74
2024/01/20 06:21:29;;;;;;;48.60;22.65;;;;;;;-1.09;80.84;100315.72;6204005;23;20025;-76
2024/01/20 06:24:15;;;;;;;66.18;24.48;;;;;;;-1.03;80.38;100316.97;6204989;23;20433;-75
2024/01/20 06:27:00;;;;;;;54.40;21.20;;;;;;;-1.03;80.60;100315.19;6204633;23;20021;-75
2024/01/20 06:29:45;;;;;;;30.90;13.63;;;;;;;-0.99;79.61;100326.19;6205701;23;20418;-76
2024/01/20 06:32:31;;;;;;;27.83;15.50;;;;;;;-1.01;79.55;100326.31;6206151;23;20402;-74
2024/01/20 06:35:16;;;;;;;36.55;21.08;;;;;;;-0.96;80.47;100334.59;6205024;23;20021;-73
2024/01/20 06:38:02;;;;;;;34.58;17.73;;;;;;;-1.00;79.49;100330.59;6205576;23;20407;-75
2024/01/20 06:40:47;;;;;;;32.28;17.48;;;;;;;-0.93;80.22;100338.72;6203411;23;20319;-75
2024/01/20 06:43:32;;;;;;;38.50;19.05;;;;;;;-1.00;79.52;100346.25;6204516;23;20025;-76
2024/01/20 06:46:18;;;;;;;36.15;17.00;;;;;;;-0.96;79.35;100347.63;6204630;23;20021;-74
2024/01/20 06:49:03;;;;;;;30.10;16.50;;;;;;;-0.99;78.65;100341.84;6204034;23;20415;-75
2024/01/20 06:51:49;;;;;;;17.90;12.10;;;;;;;-0.92;78.49;100358.66;6205157;23;20314;-74
2024/01/20 06:54:35;;;;;;;17.25;9.70;;;;;;;-0.94;78.40;100357.94;6204201;23;20318;-74
2024/01/20 06:57:20;;;;;;;25.75;14.27;;;;;;;-0.96;79.18;100359.88;6204278;23;20043;-76
2024/01/20 07:00:08;;;;;;;21.17;12.85;;;;;;;-0.97;79.52;100345.16;6205399;23;20020;-74
2024/01/20 07:02:53;;;;;;;15.15;8.88;;;;;;;-1.00;79.17;100358.47;6203958;23;20020;-77
2024/01/20 07:05:39;;;;;;;19.58;10.18;;;;;;;-0.99;78.85;100345.28;6203648;23;20131;-80
2024/01/20 07:08:24;;;;;;;20.52;11.43;;;;;;;-0.94;78.93;100353.56;6181813;23;20020;-76
2024/01/20 07:11:09;;;;;;;20.40;11.93;;;;;;;-0.84;79.05;100355.41;6204901;23;20314;-76
2024/01/20 07:13:55;;;;;;;19.55;10.25;;;;;;;-0.60;78.85;100350.72;6204197;23;20418;-75
2024/01/20 07:16:40;;;;;;;20.98;11.45;;;;;;;-0.61;77.72;100351.69;6202632;23;20021;-75
2024/01/20 07:19:26;;;;;;;22.63;11.60;;;;;;;-0.63;77.60;100350.16;6204569;23;20021;-75
2024/01/20 07:22:11;;;;;;;19.38;11.07;;;;;;;-0.63;77.03;100379.69;6203875;23;20020;-75
2024/01/20 07:24:57;;;;;;;15.10;6.88;;;;;;;-0.69;76.13;100372.38;6205106;23;20315;-74
2024/01/20 07:27:42;;;;;;;21.30;11.52;;;;;;;-0.57;76.87;100370.53;6203059;23;20027;-75
2024/01/20 07:30:27;;;;;;;18.75;10.25;;;;;;;-0.51;76.54;100381.25;6204273;23;20024;-75
2024/01/20 07:33:13;;;;;;;25.42;9.73;;;;;;;-0.49;76.18;100391.59;6204146;23;20020;-75
2024/01/20 07:35:59;;;;;;;10.98;6.85;;;;;;;-0.50;75.25;100401.22;6204215;23;20047;-78
2024/01/20 07:38:44;;;;;;;15.57;8.43;;;;;;;-0.46;75.24;100393.94;6204497;23;20027;-76
2024/01/20 07:41:30;;;;;;;18.73;10.38;;;;;;;-0.45;74.86;100387.75;6200929;23;20075;-76
2024/01/20 07:44:15;;;;;;;18.30;10.75;;;;;;;-0.49;75.91;100402.03;6202869;23;20025;-77
2024/01/20 07:47:01;;;;;;;9.52;5.13;;;;;;;-0.45;74.57;100413.06;6204071;23;20020;-77
2024/01/20 07:49:47;;;;;;;23.95;12.32;;;;;;;-0.40;74.16;100409.09;6205193;23;20047;-77
2024/01/20 07:52:33;;;;;;;18.88;8.93;;;;;;;-0.36;74.44;100417.50;6204939;23;20021;-78
2024/01/20 07:55:18;;;;;;;40.22;17.58;;;;;;;-0.26;74.27;100410.53;6203904;23;20028;-76
2024/01/20 07:58:04;;;;;;;36.40;16.08;;;;;;;-0.22;73.16;100408.47;6205074;23;20024;-75
2024/01/20 08:00:50;;;;;;;28.30;14.60;;;;;;;-0.26;73.35;100408.75;6204033;23;20330;-77
2024/01/20 08:03:35;;;;;;;32.35;15.23;;;;;;;-0.17;73.17;100419.38;6204407;23;20025;-75
2024/01/20 08:06:21;;;;;;;26.90;14.23;;;;;;;-0.09;72.97;100420.38;6203774;23;20414;-75
2024/01/20 08:09:06;;;;;;;28.73;12.63;;;;;;;-0.10;73.38;100420.50;6203037;23;20319;-74
2024/01/20 08:11:52;;;;;;;32.50;16.10;;;;;;;0.09;72.76;100406.66;6204089;23;20020;-76
2024/01/20 08:14:38;;;;;;;24.95;12.68;;;;;;;-0.01;72.84;100422.31;6204746;23;20023;-75
2024/01/20 08:17:23;;;;;;;30.65;15.40;;;;;;;0.04;71.42;100424.56;6204096;23;20311;-75
2024/01/20 08:20:09;;;;;;;19.10;9.30;;;;;;;0.12;70.93;100425.53;6203604;23;20028;-75
2024/01/20 08:22:54;;;;;;;24.98;11.45;;;;;;;0.12;70.89;100433.38;6203985;23;20042;-76
2024/01/20 08:25:40;;;;;;;25.58;15.27;;;;;;;0.36;70.65;100429.59;6203299;23;20326;-77
2024/01/20 08:28:26;;;;;;;62.75;20.65;;;;;;;0.21;71.80;100439.59;6203769;23;20028;-75
2024/01/20 08:31:11;;;;;;;27.60;11.68;;;;;;;0.06;70.52;100440.91;6203722;23;20027;-75
2024/01/20 08:33:56;;;;;;;24.13;12.15;;;;;;;0.15;71.07;100440.13;6201796;23;20027;-76
2024/01/20 08:36:41;;;;;;;31.48;13.20;;;;;;;0.31;70.01;100437.00;6203601;23;20027;-77
2024/01/20 08:39:27;;;;;;;22.27;11.25;;;;;;;0.27;70.29;100441.69;6203306;23;20047;-75
2024/01/20 08:42:13;;;;;;;23.65;12.05;;;;;;;0.11;71.17;100436.13;6197559;23;20437;-75
2024/01/20 08:44:58;;;;;;;21.95;12.15;;;;;;;0.22;70.96;100449.94;6203406;23;20330;-76
2024/01/20 08:47:44;;;;;;;14.63;8.15;;;;;;;0.54;70.61;100455.94;6201753;23;20395;-78
2024/01/20 08:50:30;;;;;;;53.53;20.67;;;;;;;0.71;69.67;100455.25;6203399;23;20433;-75
2024/01/20 08:53:16;;;;;;;17.88;10.32;;;;;;;0.68;69.33;100458.97;6201307;23;20032;-75
2024/01/20 08:56:03;;;;;;;20.90;10.43;;;;;;;0.73;68.34;100453.34;6202840;23;20027;-74
2024/01/20 08:58:49;;;;;;;13.30;7.45;;;;;;;0.57;68.81;100448.63;6203013;23;20039;-75
2024/01/20 09:01:35;;;;;;;12.68;7.15;;;;;;;0.57;68.88;100460.91;6202029;23;20028;-78
2024/01/20 09:04:20;;;;;;;15.27;8.65;;;;;;;0.43;70.37;100451.63;6201198;23;20079;-76
2024/01/20 09:07:05;;;;;;;14.00;6.90;;;;;;;0.20;69.02;100441.38;6202223;23;20028;-75
2024/01/20 09:09:52;;;;;;;14.50;7.78;;;;;;;0.30;68.88;100441.41;6201568;23;20027;-76
2024/01/20 09:12:38;;;;;;;7.43;4.20;;;;;;;0.30;69.04;100451.06;6203395;23;20028;-76
2024/01/20 09:15:23;;;;;;;17.88;9.63;;;;;;;0.46;68.66;100451.34;6203674;23;20043;-75
2024/01/20 09:18:09;;;;;;;18.60;9.18;;;;;;;0.31;70.39;100457.91;6203741;23;20429;-76
2024/01/20 09:20:54;;;;;;;11.70;6.22;;;;;;;0.35;69.07;100475.03;6203407;23;20028;-77
2024/01/20 09:23:40;;;;;;;14.18;8.40;;;;;;;0.40;70.30;100471.03;6202733;23;20051;-75
2024/01/20 09:26:26;;;;;;;5.90;4.05;;;;;;;0.28;68.95;100486.94;6202812;23;20076;-76
2024/01/20 09:29:11;;;;;;;19.35;8.20;;;;;;;0.15;69.47;100469.69;6202804;23;20318;-75
2024/01/20 09:31:57;;;;;;;9.23;5.38;;;;;;;0.25;69.14;100484.59;6203857;23;20043;-77
2024/01/20 09:34:42;;;;;;;14.00;5.82;;;;;;;0.16;69.75;100481.84;6201515;23;20314;-76
2024/01/20 09:37:28;;;;;;;7.28;4.88;;;;;;;0.21;69.89;100484.03;6202034;23;20433;-75
2024/01/20 09:40:15;;;;;;;8.98;4.70;;;;;;;0.33;69.61;100483.00;6202304;23;20027;-75
2024/01/20 09:43:01;;;;;;;12.60;6.35;;;;;;;0.24;69.74;100475.94;6191994;23;20314;-76
2024/01/20 09:45:47;;;;;;;29.75;13.38;;;;;;;0.38;70.02;100488.66;6201656;23;20047;-76
2024/01/20 09:48:33;;;;;;;29.63;15.48;;;;;;;0.65;70.75;100493.25;6203514;23;20453;-75
2024/01/20 09:51:24;;;;;;;7.50;4.70;;;;;;;0.33;69.21;100498.69;6201125;23;20027;-76
2024/01/20 09:54:10;;;;;;;7.28;4.38;;;;;;;0.28;68.07;100477.31;6202223;23;20047;-75
2024/01/20 09:56:55;;;;;;;13.63;7.60;;;;;;;0.26;67.97;100492.31;6180346;23;20028;-73
2024/01/20 09:59:42;;;;;;;6.75;4.53;;;;;;;0.20;68.12;100485.00;6202773;23;20032;-75
2024/01/20 10:02:29;;;;;;;6.45;4.90;;;;;;;0.30;67.91;100477.19;6202734;23;20044;-74
2024/01/20 10:05:15;;;;;;;18.88;9.10;;;;;;;0.45;69.81;100468.84;6202299;23;20032;-75
2024/01/20 10:08:00;;;;;;;19.58;10.25;;;;;;;0.76;68.40;100474.00;6201418;23;20040;-76
2024/01/20 10:10:45;;;;;;;17.88;6.13;;;;;;;0.81;67.23;100476.19;6200878;23;20043;-78
2024/01/20 10:13:31;;;;;;;38.15;13.57;;;;;;;0.80;67.99;100477.19;6203130;23;20306;-75
2024/01/20 10:16:17;;;;;;;31.40;14.13;;;;;;;0.90;68.04;100478.00;6201119;23;20044;-76
2024/01/20 10:19:03;;;;;;;17.10;4.63;;;;;;;0.60;66.26;100477.16;6202259;23;20043;-74
2024/01/20 10:21:49;;;;;;;10.82;6.38;;;;;;;0.67;67.18;100475.63;6203321;23;20315;-76
2024/01/20 10:24:48;;;;;;;17.90;9.23;;;;;;;0.65;68.00;100487.19;6200892;23;20047;-74
2024/01/20 10:27:34;;;;;;;7.50;5.03;;;;;;;0.55;68.30;100481.94;6202853;23;20322;-76
2024/01/20 10:30:26;;;;;;;9.98;6.00;;;;;;;0.67;68.51;100474.81;6202852;23;20043;-75
2024/01/20 10:33:12;;;;;;;6.82;4.88;;;;;;;0.68;68.58;100471.22;6202804;23;20445;-77
2024/01/20 10:35:59;;;;;;;4.65;3.20;;;;;;;0.50;66.99;100452.72;6204297;23;20322;-76
2024/01/20 10:38:46;;;;;;;9.45;4.72;;;;;;;0.52;68.25;100469.13;6203293;23;20028;-75
2024/01/20 10:41:33;;;;;;;16.98;7.22;;;;;;;0.68;68.33;100466.00;6198235;23;20437;-76
2024/01/20 10:44:21;;;;;;;9.40;4.90;;;;;;;0.54;67.03;100463.78;6201187;23;20031;-76
2024/01/20 10:47:14;;;;;;;11.98;6.35;;;;;;;0.48;67.38;100472.16;6200806;23;20028;-76
2024/01/20 10:50:04;;;;;;;21.17;10.43;;;;;;;0.63;67.96;100468.22;6202614;23;20310;-76
2024/01/20 10:52:51;;;;;;;7.80;4.82;;;;;;;0.63;66.43;100465.59;6202353;23;20040;-79
2024/01/20 10:55:36;;;;;;;8.00;5.03;;;;;;;0.54;66.60;100458.56;6201730;23;20310;-77
2024/01/20 10:58:32;;;;;;;13.15;5.65;;;;;;;0.71;65.45;100460.50;6202951;23;20031;-75
2024/01/20 11:01:18;;;;;;;9.13;4.07;;;;;;;0.73;66.25;100474.28;6201080;23;20024;-75
2024/01/20 11:04:03;;;;;;;19.90;7.68;;;;;;;0.91;67.45;100472.66;6202824;23;20314;-77
2024/01/20 11:06:49;;;;;;;19.73;9.57;;;;;;;0.94;67.31;100479.41;6202293;23;20027;-77
2024/01/20 11:09:35;;;;;;;18.40;6.57;;;;;;;1.03;66.84;100472.50;6202382;23;20440;-77
2024/01/20 11:12:22;;;;;;;10.88;5.85;;;;;;;0.73;66.78;100455.97;6202899;23;20031;-76
2024/01/20 11:15:16;;;;;;;9.02;5.75;;;;;;;0.67;67.30;100469.59;6204069;23;20027;-75
2024/01/20 11:18:03;;;;;;;8.82;5.10;;;;;;;0.61;67.33;100464.88;6203506;23;20334;-74
2024/01/20 11:20:58;;;;;;;11.68;6.32;;;;;;;0.88;66.01;100470.31;6203930;23;20323;-76
2024/01/20 11:23:59;;;;;;;17.08;8.52;;;;;;;1.24;66.13;100462.72;6204210;23;20472;-77
2024/01/20 11:26:45;;;;;;;8.32;5.20;;;;;;;0.74;65.97;100457.59;6203544;23;20433;-76
2024/01/20 11:29:31;;;;;;;11.25;6.32;;;;;;;0.92;67.17;100470.84;6204167;23;20267;-76
2024/01/20 11:32:21;;;;;;;9.50;6.03;;;;;;;0.78;67.42;100460.78;6206554;23;20027;-74
2024/01/20 11:35:07;;;;;;;12.60;6.32;;;;;;;1.04;66.40;100463.69;6205114;23;20311;-74
2024/01/20 11:37:57;;;;;;;8.90;5.28;;;;;;;1.07;67.32;100466.88;6205828;23;20074;-74
2024/01/20 11:40:42;;;;;;;11.75;6.97;;;;;;;1.09;67.27;100462.31;6204585;23;20027;-75
2024/01/20 11:43:28;;;;;;;12.07;7.30;;;;;;;0.99;66.76;100471.13;6206390;23;20308;-75
2024/01/20 11:46:14;;;;;;;12.32;7.00;;;;;;;1.23;66.60;100465.50;6205450;23;20441;-76
2024/01/20 11:48:59;;;;;;;8.73;4.25;;;;;;;0.92;66.41;100461.19;6202723;23;20031;-75
2024/01/20 11:51:44;;;;;;;17.13;6.78;;;;;;;0.98;66.12;100451.97;6203874;23;20028;-75
2024/01/20 11:54:29;;;;;;;17.35;5.18;;;;;;;0.75;66.11;100451.41;6224201;23;20431;-76
2024/01/20 11:57:26;;;;;;;8.77;5.10;;;;;;;1.06;65.75;100454.72;6203084;23;20028;-77
2024/01/20 12:00:14;;;;;;;9.77;5.55;;;;;;;1.07;66.41;100459.00;6203283;23;20697;-78
2024/01/20 12:03:00;;;;;;;8.65;5.00;;;;;;;0.89;67.74;100464.09;6202062;23;20310;-75
2024/01/20 12:05:46;;;;;;;8.00;4.55;;;;;;;0.72;67.09;100462.13;6202267;23;20047;-78
2024/01/20 12:08:32;;;;;;;11.70;6.55;;;;;;;0.80;67.61;100464.91;6200035;23;20448;-81
2024/01/20 12:11:22;;;;;;;13.40;6.00;;;;;;;0.98;66.59;100464.25;6199623;23;20134;-75
2024/01/20 12:14:08;;;;;;;7.00;4.50;;;;;;;1.06;65.88;100470.44;6201764;23;20044;-74
2024/01/20 12:16:54;;;;;;;15.63;6.57;;;;;;;1.06;66.39;100467.00;6201931;23;20310;-75
2024/01/20 12:19:40;;;;;;;17.65;7.60;;;;;;;0.96;66.57;100468.78;6200652;23;20445;-78
2024/01/20 12:22:25;;;;;;;10.23;5.15;;;;;;;0.78;67.31;100471.25;6201300;23;20036;-74
2024/01/20 12:25:10;;;;;;;11.52;6.38;;;;;;;0.90;67.75;100473.59;6202987;23;20035;-75
2024/01/20 12:27:57;;;;;;;14.63;8.27;;;;;;;0.46;66.63;100473.09;6201717;23;20318;-76
2024/01/20 12:30:43;;;;;;;6.70;4.85;;;;;;;0.55;67.94;100463.63;6203094;23;20449;-76
2024/01/20 12:33:30;;;;;;;10.10;6.32;;;;;;;0.67;68.36;100452.09;6202469;23;20031;-76
2024/01/20 12:36:15;;;;;;;15.40;7.50;;;;;;;0.78;67.84;100464.22;6201449;23;20028;-75
2024/01/20 12:39:01;;;;;;;10.02;5.60;;;;;;;0.81;68.94;100461.31;6203293;23;20321;-78
2024/01/20 12:41:48;;;;;;;24.83;9.90;;;;;;;1.01;68.32;100474.44;6199315;23;20310;-76
2024/01/20 12:44:33;;;;;;;10.90;6.85;;;;;;;0.57;67.56;100476.59;6202297;23;20084;-77